createdAt,value
2023-04-15T00:00:56.848Z,100.00
2023-04-15T00:03:23.863Z,100.00
2023-04-15T00:05:50.704Z,100.00
2023-04-15T00:08:17.611Z,100.00
2023-04-15T00:10:44.317Z,100.00
2023-04-15T00:13:10.980Z,100.00
2023-04-15T00:15:37.868Z,100.00
2023-04-15T00:18:04.573Z,100.00
2023-04-15T00:20:31.212Z,100.00
2023-04-15T00:22:57.928Z,100.00
2023-04-15T00:25:24.540Z,100.00
2023-04-15T00:27:51.299Z,100.00
2023-04-15T00:30:17.886Z,100.00
2023-04-15T00:32:44.634Z,100.00
2023-04-15T00:35:11.798Z,100.00
2023-04-15T00:37:38.465Z,100.00
2023-04-15T00:40:05.700Z,100.00
2023-04-15T00:42:32.410Z,100.00
2023-04-15T00:44:59.028Z,100.00
2023-04-15T00:47:28.212Z,100.00
2023-04-15T00:49:54.825Z,100.00
2023-04-15T00:52:21.532Z,100.00
2023-04-15T00:54:48.154Z,100.00
2023-04-15T00:57:14.807Z,100.00
2023-04-15T00:59:41.544Z,100.00
2023-04-15T01:02:08.511Z,100.00
2023-04-15T01:04:36.520Z,100.00
2023-04-15T01:07:03.294Z,100.00
2023-04-15T01:09:29.964Z,100.00
2023-04-15T01:11:56.713Z,100.00
2023-04-15T01:14:23.821Z,100.00
2023-04-15T01:16:50.498Z,100.00
2023-04-15T01:19:17.362Z,100.00
2023-04-15T01:21:44.144Z,100.00
2023-04-15T01:24:11.599Z,100.00
2023-04-15T01:26:39.228Z,100.00
2023-04-15T01:29:05.943Z,100.00
2023-04-15T01:31:32.828Z,100.00
2023-04-15T01:33:59.733Z,100.00
2023-04-15T01:36:26.427Z,100.00
2023-04-15T01:38:53.137Z,100.00
2023-04-15T01:41:26.965Z,100.00
2023-04-15T01:43:54.245Z,100.00
2023-04-15T01:46:21.105Z,100.00
2023-04-15T01:48:47.758Z,100.00
2023-04-15T01:51:14.470Z,100.00
2023-04-15T01:53:41.096Z,100.00
2023-04-15T01:56:07.921Z,100.00
2023-04-15T01:58:34.567Z,100.00
2023-04-15T02:01:01.454Z,100.00
2023-04-15T02:03:28.979Z,100.00
2023-04-15T02:05:55.737Z,100.00
2023-04-15T02:08:22.409Z,100.00
2023-04-15T02:10:49.100Z,100.00
2023-04-15T02:13:15.845Z,100.00
2023-04-15T02:15:48.097Z,100.00
2023-04-15T02:18:16.242Z,100.00
2023-04-15T02:20:42.918Z,100.00
2023-04-15T02:23:09.844Z,100.00
2023-04-15T02:25:36.592Z,100.00
2023-04-15T02:28:03.356Z,100.00
2023-04-15T02:30:30.045Z,100.00
2023-04-15T02:32:56.886Z,100.00
2023-04-15T02:35:23.538Z,100.00
2023-04-15T02:37:50.201Z,100.00
2023-04-15T02:40:16.805Z,100.00
2023-04-15T02:42:43.438Z,100.00
2023-04-15T02:45:11.244Z,100.00
2023-04-15T02:47:38.314Z,100.00
2023-04-15T02:50:05.347Z,100.00
2023-04-15T02:52:31.989Z,100.00
2023-04-15T02:54:58.666Z,100.00
2023-04-15T02:57:30.894Z,100.00
2023-04-15T02:59:57.647Z,100.00
2023-04-15T03:02:24.780Z,100.00
2023-04-15T03:04:51.566Z,100.00
2023-04-15T03:07:18.527Z,100.00
2023-04-15T03:09:46.096Z,100.00
2023-04-15T03:12:12.745Z,100.00
2023-04-15T03:14:39.368Z,100.00
2023-04-15T03:17:06.007Z,100.00
2023-04-15T03:19:32.661Z,100.00
2023-04-15T03:21:59.389Z,100.00
2023-04-15T03:24:26.468Z,100.00
2023-04-15T03:26:53.205Z,100.00
2023-04-15T03:29:19.855Z,100.00
2023-04-15T03:31:46.603Z,100.00
2023-04-15T03:34:13.449Z,100.00
2023-04-15T03:36:40.237Z,100.00
2023-04-15T03:39:06.854Z,100.00
2023-04-15T03:41:33.505Z,100.00
2023-04-15T03:44:00.152Z,100.00
2023-04-15T03:46:27.078Z,100.00
2023-04-15T03:48:53.732Z,100.00
2023-04-15T03:51:20.524Z,100.00
2023-04-15T03:53:47.187Z,100.00
2023-04-15T03:56:13.845Z,100.00
2023-04-15T03:58:40.488Z,100.00
2023-04-15T04:01:07.139Z,100.00
2023-04-15T04:03:33.997Z,100.00
2023-04-15T04:06:00.980Z,100.00
2023-04-15T04:08:27.600Z,100.00
2023-04-15T04:10:54.243Z,100.00
2023-04-15T04:13:20.866Z,100.00
2023-04-15T04:15:47.596Z,100.00
2023-04-15T04:18:14.261Z,100.00
2023-04-15T04:20:41.692Z,100.00
2023-04-15T04:23:08.308Z,100.00
2023-04-15T04:25:35.012Z,100.00
2023-04-15T04:28:01.659Z,100.00
2023-04-15T04:30:28.335Z,100.00
2023-04-15T04:32:55.085Z,100.00
2023-04-15T04:35:21.985Z,100.00
2023-04-15T04:37:48.633Z,100.00
2023-04-15T04:40:15.397Z,100.00
2023-04-15T04:42:42.044Z,100.00
2023-04-15T04:45:09.176Z,100.00
2023-04-15T04:47:35.872Z,100.00
2023-04-15T04:50:02.794Z,100.00
2023-04-15T04:52:29.446Z,100.00
2023-04-15T04:54:56.191Z,100.00
2023-04-15T04:57:22.892Z,100.00
2023-04-15T04:59:49.579Z,100.00
2023-04-15T05:02:16.273Z,100.00
2023-04-15T05:04:43.026Z,100.00
2023-04-15T05:07:09.720Z,100.00
2023-04-15T05:09:36.431Z,100.00
2023-04-15T05:12:04.441Z,100.00
2023-04-15T05:14:31.090Z,100.00
2023-04-15T05:16:57.819Z,100.00
2023-04-15T05:19:24.475Z,100.00
2023-04-15T05:21:51.139Z,100.00
2023-04-15T05:24:17.763Z,100.00
2023-04-15T05:26:44.483Z,100.00
2023-04-15T05:29:11.169Z,100.00
2023-04-15T05:31:37.967Z,100.00
2023-04-15T05:34:04.714Z,100.00
2023-04-15T05:36:31.477Z,100.00
2023-04-15T05:38:58.142Z,100.00
2023-04-15T05:41:24.754Z,100.00
2023-04-15T05:43:51.421Z,100.00
2023-04-15T05:46:18.138Z,100.00
2023-04-15T05:48:44.776Z,100.00
2023-04-15T05:51:11.536Z,100.00
2023-04-15T05:53:38.222Z,100.00
2023-04-15T05:56:05.015Z,100.00
2023-04-15T05:58:31.594Z,100.00
2023-04-15T06:00:58.561Z,100.00
2023-04-15T06:03:25.347Z,100.00
2023-04-15T06:05:52.174Z,100.00
2023-04-15T06:08:18.797Z,100.00
2023-04-15T06:10:45.506Z,100.00
2023-04-15T06:13:12.146Z,100.00
2023-04-15T06:15:38.797Z,100.00
2023-04-15T06:18:05.414Z,100.00
2023-04-15T06:20:32.275Z,100.00
2023-04-15T06:22:59.142Z,100.00
2023-04-15T06:25:26.004Z,100.00
2023-04-15T06:27:52.647Z,100.00
2023-04-15T06:30:19.273Z,100.00
2023-04-15T06:32:46.011Z,100.00
2023-04-15T06:35:12.695Z,100.00
2023-04-15T06:37:39.302Z,100.00
2023-04-15T06:40:06.706Z,100.00
2023-04-15T06:42:33.468Z,100.00
2023-04-15T06:45:00.158Z,100.00
2023-04-15T06:47:26.834Z,100.00
2023-04-15T06:49:53.570Z,100.00
2023-04-15T06:52:20.327Z,100.00
2023-04-15T06:54:46.973Z,100.00
2023-04-15T06:57:13.674Z,100.00
2023-04-15T06:59:40.365Z,100.00
2023-04-15T07:02:12.200Z,100.00
2023-04-15T07:04:38.897Z,100.00
2023-04-15T07:07:05.589Z,100.00
2023-04-15T07:09:32.627Z,100.00
2023-04-15T07:12:02.035Z,100.00
2023-04-15T07:14:28.714Z,100.00
2023-04-15T07:16:55.380Z,100.00
2023-04-15T07:19:21.962Z,100.00
2023-04-15T07:21:48.668Z,100.00
2023-04-15T07:24:15.354Z,100.00
2023-04-15T07:26:41.995Z,100.00
2023-04-15T07:29:08.644Z,100.00
2023-04-15T07:31:35.367Z,100.00
2023-04-15T07:34:02.212Z,99.55
2023-04-15T07:36:29.003Z,100.00
2023-04-15T07:38:55.629Z,100.00
2023-04-15T07:41:23.902Z,100.00
2023-04-15T07:43:50.528Z,100.00
2023-04-15T07:46:17.178Z,100.00
2023-04-15T07:48:43.846Z,100.00
2023-04-15T07:51:10.512Z,100.00
2023-04-15T07:53:37.141Z,100.00
2023-04-15T07:56:04.063Z,100.00
2023-04-15T07:58:30.745Z,100.00
2023-04-15T08:00:57.382Z,100.00
2023-04-15T08:03:24.987Z,100.00
2023-04-15T08:05:51.623Z,98.62
2023-04-15T08:08:18.242Z,96.90
2023-04-15T08:10:44.874Z,96.27
2023-04-15T08:13:11.511Z,96.83
2023-04-15T08:15:38.278Z,90.64
2023-04-15T08:18:04.920Z,90.98
2023-04-15T08:20:31.591Z,86.69
2023-04-15T08:22:58.287Z,93.56
2023-04-15T08:25:24.940Z,88.88
2023-04-15T08:27:51.691Z,90.83
2023-04-15T08:30:18.392Z,89.12
2023-04-15T08:32:48.036Z,85.66
2023-04-15T08:35:14.885Z,97.41
2023-04-15T08:37:41.506Z,90.11
2023-04-15T08:40:08.930Z,85.76
2023-04-15T08:42:44.835Z,89.02
2023-04-15T08:45:11.783Z,91.32
2023-04-15T08:47:38.955Z,87.07
2023-04-15T08:50:09.313Z,91.77
2023-04-15T08:52:36.367Z,87.18
2023-04-15T08:55:03.520Z,81.10
2023-04-15T08:57:30.283Z,81.52
2023-04-15T08:59:56.990Z,82.12
2023-04-15T09:02:25.165Z,83.64
2023-04-15T09:04:52.012Z,82.94
2023-04-15T09:07:18.705Z,81.41
2023-04-15T09:09:45.348Z,87.39
2023-04-15T09:12:12.676Z,85.55
2023-04-15T09:14:40.557Z,90.65
2023-04-15T09:17:10.770Z,83.70
2023-04-15T09:19:37.399Z,82.35
2023-04-15T09:22:04.370Z,83.55
2023-04-15T09:24:37.588Z,82.27
2023-04-15T09:27:05.145Z,82.42
2023-04-15T09:29:31.798Z,83.39
2023-04-15T09:32:10.729Z,82.40
2023-04-15T09:34:37.655Z,76.83
2023-04-15T09:37:04.354Z,79.10
2023-04-15T09:39:52.319Z,81.04
2023-04-15T09:42:19.875Z,82.94
2023-04-15T09:44:46.585Z,81.47
2023-04-15T09:47:28.716Z,77.33
2023-04-15T09:49:56.854Z,73.89
2023-04-15T09:52:23.532Z,76.68
2023-04-15T09:54:53.973Z,77.88
2023-04-15T09:57:20.556Z,75.46
2023-04-15T09:59:48.001Z,75.26
2023-04-15T10:02:16.126Z,76.30
2023-04-15T10:04:44.522Z,79.03
2023-04-15T10:07:12.131Z,78.46
2023-04-15T10:09:39.780Z,78.14
2023-04-15T10:12:06.551Z,74.88
2023-04-15T10:14:35.710Z,78.09
2023-04-15T10:17:05.261Z,81.62
2023-04-15T10:19:33.839Z,79.56
2023-04-15T10:22:00.706Z,81.08
2023-04-15T10:24:27.638Z,80.09
2023-04-15T10:26:54.592Z,79.70
2023-04-15T10:29:21.329Z,84.59
2023-04-15T10:31:48.690Z,84.96
2023-04-15T10:34:16.225Z,85.38
2023-04-15T10:36:43.004Z,83.34
2023-04-15T10:39:34.357Z,84.30
2023-04-15T10:42:17.012Z,81.34
2023-04-15T10:44:49.366Z,82.06
2023-04-15T10:47:17.386Z,80.10
2023-04-15T10:49:48.586Z,80.22
2023-04-15T10:52:16.682Z,80.82
2023-04-15T10:54:43.843Z,76.85
2023-04-15T10:57:16.480Z,79.50
2023-04-15T10:59:58.323Z,79.36
2023-04-15T11:02:49.456Z,77.80
2023-04-15T11:05:17.597Z,81.04
2023-04-15T11:07:44.210Z,83.13
2023-04-15T11:10:13.871Z,85.52
2023-04-15T11:12:41.529Z,87.60
2023-04-15T11:15:32.852Z,92.26
2023-04-15T11:18:10.942Z,91.61
2023-04-15T11:20:39.359Z,92.12
2023-04-15T11:23:14.141Z,90.86
2023-04-15T11:25:42.811Z,88.93
2023-04-15T11:28:10.013Z,86.59
2023-04-15T11:30:37.857Z,87.80
2023-04-15T11:33:06.717Z,85.84
2023-04-15T11:35:33.541Z,83.88
2023-04-15T11:38:06.278Z,81.59
2023-04-15T11:40:32.936Z,85.48
2023-04-15T11:43:09.302Z,83.02
2023-04-15T11:45:37.896Z,85.80
2023-04-15T11:48:12.252Z,86.18
2023-04-15T11:50:39.673Z,86.39
2023-04-15T11:53:08.720Z,87.09
2023-04-15T11:55:50.027Z,88.04
2023-04-15T11:58:22.700Z,83.90
2023-04-15T12:00:55.246Z,82.34
2023-04-15T12:03:23.843Z,85.82
2023-04-15T12:06:10.880Z,84.89
2023-04-15T12:08:55.914Z,83.40
2023-04-15T12:11:34.588Z,81.90
2023-04-15T12:14:19.394Z,83.22
2023-04-15T12:16:50.090Z,82.22
2023-04-15T12:19:43.071Z,85.20
2023-04-15T12:22:11.523Z,81.04
2023-04-15T12:24:38.909Z,85.69
2023-04-15T12:27:10.745Z,85.06
2023-04-15T12:29:39.259Z,88.71
2023-04-15T12:32:08.367Z,82.10
2023-04-15T12:34:38.668Z,83.54
2023-04-15T12:37:07.857Z,84.55
2023-04-15T12:39:40.036Z,82.47
2023-04-15T12:42:07.375Z,82.45
2023-04-15T12:44:34.817Z,83.72
2023-04-15T12:47:01.610Z,83.44
2023-04-15T12:49:29.267Z,82.53
2023-04-15T12:51:57.632Z,82.75
2023-04-15T12:54:24.268Z,78.94
2023-04-15T12:56:51.108Z,82.02
2023-04-15T12:59:18.325Z,83.65
2023-04-15T13:01:48.791Z,76.99
2023-04-15T13:04:16.428Z,77.01
2023-04-15T13:06:43.700Z,76.76
2023-04-15T13:09:10.374Z,78.61
2023-04-15T13:11:37.071Z,80.23
2023-04-15T13:14:06.080Z,79.67
2023-04-15T13:16:33.831Z,79.50
2023-04-15T13:19:02.341Z,80.46
2023-04-15T13:21:29.732Z,79.15
2023-04-15T13:23:56.305Z,78.59
2023-04-15T13:26:23.080Z,81.33
2023-04-15T13:28:49.687Z,79.26
2023-04-15T13:31:16.473Z,78.96
2023-04-15T13:33:43.214Z,82.11
2023-04-15T13:36:09.902Z,81.93
2023-04-15T13:38:36.533Z,81.48
2023-04-15T13:41:03.142Z,83.91
2023-04-15T13:43:29.744Z,79.79
2023-04-15T13:45:56.655Z,79.10
2023-04-15T13:48:23.413Z,80.54
2023-04-15T13:50:50.426Z,84.00
2023-04-15T13:53:17.080Z,83.33
2023-04-15T13:55:43.828Z,81.71
2023-04-15T13:58:11.498Z,79.57
2023-04-15T14:00:38.198Z,83.18
2023-04-15T14:03:05.285Z,80.84
2023-04-15T14:05:32.966Z,80.45
2023-04-15T14:08:00.336Z,81.87
2023-04-15T14:10:27.049Z,83.60
2023-04-15T14:12:53.717Z,83.78
2023-04-15T14:15:21.410Z,85.33
2023-04-15T14:17:48.177Z,85.52
2023-04-15T14:20:16.974Z,87.30
2023-04-15T14:22:44.149Z,83.44
2023-04-15T14:25:17.287Z,86.87
2023-04-15T14:27:46.933Z,85.42
2023-04-15T14:30:13.683Z,81.49
2023-04-15T14:32:40.577Z,83.63
2023-04-15T14:35:07.471Z,83.73
2023-04-15T14:37:34.186Z,83.93
2023-04-15T14:40:00.867Z,86.19
2023-04-15T14:42:27.502Z,87.32
2023-04-15T14:44:54.120Z,84.62
2023-04-15T14:47:21.076Z,83.43
2023-04-15T14:49:47.873Z,82.69
2023-04-15T14:52:14.654Z,82.24
2023-04-15T14:54:41.217Z,75.25
2023-04-15T14:57:07.835Z,76.51
2023-04-15T14:59:34.680Z,76.02
2023-04-15T15:02:01.582Z,80.20
2023-04-15T15:04:29.380Z,79.34
2023-04-15T15:06:59.135Z,77.79
2023-04-15T15:09:25.891Z,78.88
2023-04-15T15:11:52.652Z,75.58
2023-04-15T15:14:20.580Z,76.92
2023-04-15T15:16:47.275Z,76.41
2023-04-15T15:19:14.115Z,76.77
2023-04-15T15:21:40.864Z,78.02
2023-04-15T15:24:07.503Z,81.21
2023-04-15T15:26:34.141Z,79.34
2023-04-15T15:29:00.792Z,79.81
2023-04-15T15:31:27.472Z,78.48
2023-04-15T15:33:54.124Z,81.10
2023-04-15T15:36:20.820Z,81.72
2023-04-15T15:38:47.467Z,80.31
2023-04-15T15:41:14.115Z,81.70
2023-04-15T15:43:40.819Z,82.84
2023-04-15T15:46:07.561Z,81.74
2023-04-15T15:48:34.581Z,82.45
2023-04-15T15:51:01.406Z,82.48
2023-04-15T15:53:28.064Z,84.49
2023-04-15T15:55:54.757Z,82.39
2023-04-15T15:58:21.427Z,82.87
2023-04-15T16:00:48.258Z,82.65
2023-04-15T16:03:15.744Z,83.35
2023-04-15T16:05:42.480Z,83.56
2023-04-15T16:08:09.230Z,84.64
2023-04-15T16:10:35.841Z,84.59
2023-04-15T16:13:02.730Z,86.55
2023-04-15T16:15:29.383Z,85.27
2023-04-15T16:17:56.159Z,84.93
2023-04-15T16:20:23.300Z,85.81
2023-04-15T16:22:50.125Z,83.15
2023-04-15T16:25:17.034Z,85.10
2023-04-15T16:27:54.685Z,88.14
2023-04-15T16:30:26.034Z,88.56
2023-04-15T16:32:52.997Z,92.13
2023-04-15T16:35:19.957Z,91.85
2023-04-15T16:37:46.724Z,93.01
2023-04-15T16:40:13.567Z,94.56
2023-04-15T16:42:40.273Z,89.14
2023-04-15T16:45:07.216Z,92.05
2023-04-15T16:47:33.981Z,95.72
2023-04-15T16:50:00.653Z,95.52
2023-04-15T16:52:28.300Z,97.11
2023-04-15T16:54:54.928Z,96.03
2023-04-15T16:57:21.526Z,94.11
2023-04-15T16:59:48.169Z,98.06
2023-04-15T17:02:15.173Z,100.00
2023-04-15T17:04:41.996Z,99.04
2023-04-15T17:07:09.056Z,97.12
2023-04-15T17:09:35.864Z,99.02
2023-04-15T17:12:04.193Z,99.35
2023-04-15T17:14:32.544Z,94.41
2023-04-15T17:16:59.783Z,95.14
2023-04-15T17:19:26.428Z,97.20
2023-04-15T17:21:54.832Z,96.89
2023-04-15T17:24:21.815Z,99.57
2023-04-15T17:26:48.437Z,100.00
2023-04-15T17:29:15.246Z,100.00
2023-04-15T17:31:41.892Z,96.91
2023-04-15T17:34:10.048Z,96.31
2023-04-15T17:36:38.212Z,96.68
2023-04-15T17:39:05.065Z,96.78
2023-04-15T17:41:32.001Z,97.41
2023-04-15T17:43:58.620Z,97.01
2023-04-15T17:46:25.564Z,97.91
2023-04-15T17:48:52.200Z,97.54
2023-04-15T17:51:18.846Z,97.37
2023-04-15T17:53:45.545Z,97.07
2023-04-15T17:56:12.186Z,97.44
2023-04-15T17:58:38.924Z,97.09
2023-04-15T18:01:05.925Z,98.01
2023-04-15T18:03:32.727Z,99.07
2023-04-15T18:05:59.518Z,99.60
2023-04-15T18:08:26.167Z,100.00
2023-04-15T18:10:52.872Z,98.38
2023-04-15T18:13:19.598Z,98.06
2023-04-15T18:15:47.472Z,98.33
2023-04-15T18:18:14.230Z,99.47
2023-04-15T18:20:40.887Z,99.79
2023-04-15T18:23:07.669Z,100.00
2023-04-15T18:25:36.704Z,100.00
2023-04-15T18:28:03.347Z,100.00
2023-04-15T18:30:29.971Z,100.00
2023-04-15T18:32:56.600Z,100.00
2023-04-15T18:35:23.400Z,100.00
2023-04-15T18:37:50.127Z,99.95
2023-04-15T18:40:16.837Z,100.00
2023-04-15T18:42:43.420Z,100.00
2023-04-15T18:45:10.376Z,100.00
2023-04-15T18:47:37.208Z,100.00
2023-04-15T18:50:03.978Z,100.00
2023-04-15T18:52:30.761Z,100.00
2023-04-15T18:54:57.348Z,100.00
2023-04-15T18:57:31.540Z,100.00
2023-04-15T19:00:02.010Z,100.00
2023-04-15T19:02:28.837Z,99.98
2023-04-15T19:04:55.610Z,100.00
2023-04-15T19:07:22.442Z,100.00
2023-04-15T19:09:49.102Z,100.00
2023-04-15T19:12:15.709Z,100.00
2023-04-15T19:14:42.422Z,100.00
2023-04-15T19:17:09.048Z,100.00
2023-04-15T19:19:35.696Z,100.00
2023-04-15T19:22:02.778Z,100.00
2023-04-15T19:24:33.010Z,100.00
2023-04-15T19:27:00.046Z,100.00
2023-04-15T19:29:27.033Z,100.00
2023-04-15T19:31:53.700Z,100.00
2023-04-15T19:34:20.437Z,100.00
2023-04-15T19:36:47.116Z,100.00
2023-04-15T19:39:13.798Z,100.00
2023-04-15T19:41:40.422Z,100.00
2023-04-15T19:44:07.123Z,100.00
2023-04-15T19:46:33.848Z,100.00
2023-04-15T19:49:00.715Z,100.00
2023-04-15T19:51:27.421Z,100.00
2023-04-15T19:53:54.006Z,100.00
2023-04-15T19:56:20.825Z,100.00
2023-04-15T19:58:47.513Z,100.00
2023-04-15T20:01:14.195Z,100.00
2023-04-15T20:03:40.953Z,100.00
2023-04-15T20:06:07.687Z,100.00
2023-04-15T20:08:34.292Z,100.00
2023-04-15T20:11:00.965Z,100.00
2023-04-15T20:13:27.692Z,100.00
2023-04-15T20:15:54.312Z,100.00
2023-04-15T20:18:20.983Z,100.00
2023-04-15T20:20:47.713Z,100.00
2023-04-15T20:23:14.383Z,100.00
2023-04-15T20:25:41.846Z,100.00
2023-04-15T20:28:08.723Z,100.00
2023-04-15T20:30:35.584Z,100.00
2023-04-15T20:33:02.344Z,100.00
2023-04-15T20:35:29.036Z,100.00
2023-04-15T20:38:01.542Z,100.00
2023-04-15T20:40:28.287Z,100.00
2023-04-15T20:42:54.966Z,100.00
2023-04-15T20:45:21.685Z,100.00
2023-04-15T20:47:48.386Z,100.00
2023-04-15T20:50:18.078Z,100.00
2023-04-15T20:52:44.794Z,100.00
2023-04-15T20:55:11.480Z,100.00
2023-04-15T20:57:38.177Z,100.00
2023-04-15T21:00:05.663Z,100.00
2023-04-15T21:02:32.402Z,100.00
2023-04-15T21:04:59.296Z,100.00
2023-04-15T21:07:26.130Z,100.00
2023-04-15T21:09:52.835Z,100.00
2023-04-15T21:12:19.475Z,100.00
2023-04-15T21:14:46.249Z,100.00
2023-04-15T21:17:13.089Z,100.00
2023-04-15T21:19:39.709Z,100.00
2023-04-15T21:22:06.408Z,100.00
2023-04-15T21:24:33.295Z,100.00
2023-04-15T21:26:59.969Z,100.00
2023-04-15T21:29:26.564Z,100.00
2023-04-15T21:31:53.296Z,100.00
2023-04-15T21:34:19.984Z,100.00
2023-04-15T21:36:46.919Z,100.00
2023-04-15T21:39:13.554Z,100.00
2023-04-15T21:41:40.162Z,100.00
2023-04-15T21:44:06.948Z,100.00
2023-04-15T21:46:35.609Z,100.00
2023-04-15T21:49:03.250Z,100.00
2023-04-15T21:51:30.140Z,100.00
2023-04-15T21:53:56.837Z,100.00
2023-04-15T21:56:23.473Z,100.00
2023-04-15T21:58:50.238Z,100.00
2023-04-15T22:01:17.285Z,100.00
2023-04-15T22:03:44.348Z,100.00
2023-04-15T22:06:11.419Z,100.00
2023-04-15T22:08:44.860Z,100.00
2023-04-15T22:11:21.117Z,100.00
2023-04-15T22:13:47.763Z,100.00
2023-04-15T22:16:14.415Z,100.00
2023-04-15T22:18:41.109Z,100.00
2023-04-15T22:21:07.870Z,100.00
2023-04-15T22:23:34.668Z,100.00
2023-04-15T22:26:01.612Z,100.00
2023-04-15T22:28:28.274Z,100.00
2023-04-15T22:30:55.054Z,100.00
2023-04-15T22:33:21.708Z,100.00
2023-04-15T22:35:48.349Z,100.00
2023-04-15T22:38:14.999Z,100.00
2023-04-15T22:40:42.022Z,100.00
2023-04-15T22:43:08.664Z,100.00
2023-04-15T22:45:35.315Z,100.00
2023-04-15T22:48:02.213Z,100.00
2023-04-15T22:50:28.871Z,100.00
2023-04-15T22:52:55.493Z,100.00
2023-04-15T22:55:22.224Z,100.00
2023-04-15T22:57:48.879Z,100.00
2023-04-15T23:00:15.506Z,100.00
2023-04-15T23:02:42.273Z,100.00
2023-04-15T23:05:12.980Z,100.00
2023-04-15T23:07:40.352Z,100.00
2023-04-15T23:10:07.551Z,100.00
2023-04-15T23:12:34.250Z,100.00
2023-04-15T23:15:00.911Z,100.00
2023-04-15T23:17:27.616Z,100.00
2023-04-15T23:19:54.364Z,100.00
2023-04-15T23:22:21.060Z,100.00
2023-04-15T23:24:47.753Z,100.00
2023-04-15T23:27:14.498Z,100.00
2023-04-15T23:29:41.202Z,100.00
2023-04-15T23:32:07.866Z,100.00
2023-04-15T23:34:34.609Z,100.00
2023-04-15T23:37:01.209Z,100.00
2023-04-15T23:39:27.895Z,100.00
2023-04-15T23:41:54.536Z,100.00
2023-04-15T23:44:21.162Z,100.00
2023-04-15T23:46:47.983Z,100.00
2023-04-15T23:49:14.731Z,100.00
2023-04-15T23:51:41.423Z,100.00
2023-04-15T23:54:08.124Z,100.00
2023-04-15T23:56:34.864Z,100.00
2023-04-15T23:59:01.565Z,100.00
